Time,TemperatureF,DewpointF,PressureIn,WindDirection,WindDirectionDegrees,WindSpeedMPH,WindSpeedGustMPH,Humidity,HourlyPrecipIn,Conditions,Clouds,dailyrainin,SoftwareType,DateUTC
2013-01-15 00:01:00,28.6,27.8,30.52,SW,225,1.1,0.0,97,0.00,RA,,0.00,WeatherDisplay:10.37,2013-01-15 08:01:00,
2013-01-15 00:06:00,28.6,27.8,30.52,SW,225,1.1,0.0,97,0.00,RA,,0.00,WeatherDisplay:10.37,2013-01-15 08:06:00,
2013-01-15 00:11:00,28.6,27.8,30.52,SW,225,1.1,0.0,97,0.00,CLR,,0.00,WeatherDisplay:10.37,2013-01-15 08:11:00,
2013-01-15 00:16:00,28.6,27.8,30.52,South,180,1.1,0.0,97,0.00,CLR,,0.00,WeatherDisplay:10.37,2013-01-15 08:16:00,
2013-01-15 00:21:00,28.6,27.8,30.52,West,270,1.1,1.1,97,0.00,CLR,,0.00,WeatherDisplay:10.37,2013-01-15 08:21:00,
2013-01-15 00:26:00,28.8,28.0,30.52,SW,225,1.1,1.6,97,0.00,CLR,,0.00,WeatherDisplay:10.37,2013-01-15 08:26:00,
2013-01-15 00:31:00,28.8,28.0,30.52,SW,225,1.1,0.0,97,0.00,CLR,,0.00,WeatherDisplay:10.37,2013-01-15 08:31:00,
2013-01-15 00:36:00,28.8,28.0,30.52,SW,225,1.1,0.0,97,0.00,CLR,,0.00,WeatherDisplay:10.37,2013-01-15 08:36:00,
2013-01-15 00:41:00,28.6,27.8,30.51,SW,225,1.1,0.0,97,0.00,CLR,,0.00,WeatherDisplay:10.37,2013-01-15 08:41:00,
2013-01-15 00:46:00,28.6,27.8,30.51,SW,225,0.0,0.0,97,0.00,CLR,,0.00,WeatherDisplay:10.37,2013-01-15 08:46:00,
2013-01-15 00:51:00,28.6,27.8,30.52,SW,225,1.1,0.0,97,0.00,CLR,,0.00,WeatherDisplay:10.37,2013-01-15 08:51:00,
2013-01-15 00:56:00,28.4,27.7,30.52,SW,225,1.1,0.0,97,0.00,CLR,,0.00,WeatherDisplay:10.37,2013-01-15 08:56:00,
2013-01-15 01:01:00,28.2,27.5,30.52,South,180,1.1,0.0,97,0.00,CLR,,0.00,WeatherDisplay:10.37,2013-01-15 09:01:00,
2013-01-15 01:06:00,28.2,27.5,30.52,SW,225,0.0,0.0,97,0.00,CLR,,0.00,WeatherDisplay:10.37,2013-01-15 09:06:00,
2013-01-15 01:11:00,28.2,27.5,30.52,SW,225,0.0,0.0,97,0.00,CLR,,0.00,WeatherDisplay:10.37,2013-01-15 09:11:00,
2013-01-15 01:16:00,28.2,27.5,30.52,SW,225,1.1,0.0,97,0.00,CLR,,0.00,WeatherDisplay:10.37,2013-01-15 09:16:00,
2013-01-15 01:21:00,28.0,27.3,30.52,South,180,1.1,0.0,97,0.00,CLR,,0.00,WeatherDisplay:10.37,2013-01-15 09:21:00,
2013-01-15 01:26:00,28.0,27.3,30.52,SW,225,1.1,0.0,97,0.00,CLR,,0.00,WeatherDisplay:10.37,2013-01-15 09:26:00,
2013-01-15 01:31:00,28.2,27.7,30.52,SW,225,1.1,0.0,98,0.00,CLR,,0.00,WeatherDisplay:10.37,2013-01-15 09:31:00,
2013-01-15 01:36:00,28.4,27.7,30.52,West,270,1.1,1.1,97,0.00,CLR,,0.00,WeatherDisplay:10.37,2013-01-15 09:36:00,
2013-01-15 01:41:00,28.4,27.9,30.52,West,270,0.0,0.0,98,0.00,CLR,,0.00,WeatherDisplay:10.37,2013-01-15 09:41:00,
2013-01-15 01:46:00,28.4,27.9,30.52,West,270,0.0,0.0,98,0.00,CLR,,0.00,WeatherDisplay:10.37,2013-01-15 09:46:00,
2013-01-15 01:52:00,28.4,27.9,30.52,West,270,0.0,0.0,98,0.00,CLR,,0.00,WeatherDisplay:10.37,2013-01-15 09:52:00,
2013-01-15 01:57:00,28.4,27.9,30.53,SW,225,1.1,0.0,98,0.00,CLR,,0.00,WeatherDisplay:10.37,2013-01-15 09:57:00,
2013-01-15 02:02:00,28.2,27.7,30.52,SW,225,0.0,0.0,98,0.00,CLR,,0.00,WeatherDisplay:10.37,2013-01-15 10:02:00,
2013-01-15 02:07:00,28.0,27.3,30.52,South,180,1.1,0.0,97,0.00,CLR,,0.00,WeatherDisplay:10.37,2013-01-15 10:07:00,
2013-01-15 02:12:00,27.9,27.4,30.52,South,180,1.1,0.0,98,0.00,CLR,,0.00,WeatherDisplay:10.37,2013-01-15 10:12:00,
2013-01-15 02:17:00,27.9,27.1,30.52,SW,225,1.1,0.0,97,0.00,CLR,,0.00,WeatherDisplay:10.37,2013-01-15 10:17:00,
2013-01-15 02:22:00,27.9,27.4,30.53,SW,225,1.1,0.0,98,0.00,CLR,,0.00,WeatherDisplay:10.37,2013-01-15 10:22:00,
2013-01-15 02:27:00,27.9,27.4,30.53,SW,225,1.1,0.0,98,0.00,CLR,,0.00,WeatherDisplay:10.37,2013-01-15 10:27:00,
2013-01-15 02:32:00,28.0,27.5,30.53,West,270,3.1,3.1,98,0.00,CLR,,0.00,WeatherDisplay:10.37,2013-01-15 10:32:00,
2013-01-15 02:37:00,28.2,27.7,30.53,West,270,1.1,0.0,98,0.00,CLR,,0.00,WeatherDisplay:10.37,2013-01-15 10:37:00,
2013-01-15 02:42:00,28.2,27.7,30.54,SE,135,0.0,0.0,98,0.00,CLR,,0.00,WeatherDisplay:10.37,2013-01-15 10:42:00,
2013-01-15 02:47:00,28.6,28.1,30.53,SW,225,3.5,0.0,98,0.00,CLR,,0.00,WeatherDisplay:10.37,2013-01-15 10:47:00,
2013-01-15 02:52:00,28.8,28.3,30.53,West,270,1.1,0.0,98,0.00,CLR,,0.00,WeatherDisplay:10.37,2013-01-15 10:52:00,
2013-01-15 02:57:00,28.6,28.1,30.54,South,180,1.1,0.0,98,0.00,CLR,,0.00,WeatherDisplay:10.37,2013-01-15 10:57:00,
2013-01-15 03:02:00,28.4,27.9,30.54,South,180,0.0,0.0,98,0.00,CLR,,0.00,WeatherDisplay:10.37,2013-01-15 11:02:00,
2013-01-15 03:07:00,28.0,27.5,30.54,SW,225,0.0,0.0,98,0.00,CLR,,0.00,WeatherDisplay:10.37,2013-01-15 11:07:00,
2013-01-15 03:12:00,27.9,27.4,30.54,SW,225,0.0,0.0,98,0.00,CLR,,0.00,WeatherDisplay:10.37,2013-01-15 11:12:00,
2013-01-15 03:17:00,27.7,26.9,30.53,SW,225,1.1,0.0,97,0.00,CLR,,0.00,WeatherDisplay:10.37,2013-01-15 11:17:00,
2013-01-15 03:22:00,27.7,27.2,30.53,SW,225,1.1,1.1,98,0.00,CLR,,0.00,WeatherDisplay:10.37,2013-01-15 11:22:00,
2013-01-15 03:27:00,27.7,27.2,30.53,South,180,0.0,0.0,98,0.00,CLR,,0.00,WeatherDisplay:10.37,2013-01-15 11:27:00,
2013-01-15 03:32:00,27.7,27.2,30.54,SW,225,1.1,0.0,98,0.00,CLR,,0.00,WeatherDisplay:10.37,2013-01-15 11:32:00,
2013-01-15 03:37:00,27.5,27.0,30.54,SW,225,0.0,0.0,98,0.00,CLR,,0.00,WeatherDisplay:10.37,2013-01-15 11:37:00,
2013-01-15 03:42:00,27.5,26.8,30.54,SW,225,1.1,0.0,97,0.00,CLR,,0.00,WeatherDisplay:10.37,2013-01-15 11:42:00,
2013-01-15 03:47:00,27.3,26.8,30.54,SW,225,1.1,0.0,98,0.00,CLR,,0.00,WeatherDisplay:10.37,2013-01-15 11:47:00,
2013-01-15 03:52:00,27.5,27.0,30.54,SW,225,1.1,1.1,98,0.00,CLR,,0.00,WeatherDisplay:10.37,2013-01-15 11:52:00,
2013-01-15 03:57:00,27.5,27.0,30.54,SW,225,1.1,0.0,98,0.00,CLR,,0.00,WeatherDisplay:10.37,2013-01-15 11:57:00,
2013-01-15 04:02:00,27.3,26.8,30.54,SW,225,0.0,0.0,98,0.00,CLR,,0.00,WeatherDisplay:10.37,2013-01-15 12:02:00,
2013-01-15 04:07:00,27.3,26.8,30.54,SW,225,0.0,0.0,98,0.00,CLR,,0.00,WeatherDisplay:10.37,2013-01-15 12:07:00,
2013-01-15 04:12:00,27.1,26.7,30.54,SW,225,1.1,0.0,98,0.00,CLR,,0.00,WeatherDisplay:10.37,2013-01-15 12:12:00,
2013-01-15 04:17:00,27.1,26.7,30.54,SW,225,1.1,0.0,98,0.00,CLR,,0.00,WeatherDisplay:10.37,2013-01-15 12:17:00,
2013-01-15 04:22:00,27.1,26.7,30.54,SW,225,1.1,0.0,98,0.00,CLR,,0.00,WeatherDisplay:10.37,2013-01-15 12:22:00,
2013-01-15 04:27:00,27.0,26.5,30.54,SW,225,1.1,0.0,98,0.00,CLR,,0.00,WeatherDisplay:10.37,2013-01-15 12:27:00,
2013-01-15 04:32:00,27.0,26.5,30.54,SW,225,1.1,0.0,98,0.00,CLR,,0.00,WeatherDisplay:10.37,2013-01-15 12:32:00,
2013-01-15 04:37:00,27.1,26.7,30.54,West,270,1.1,0.0,98,0.00,CLR,,0.00,WeatherDisplay:10.37,2013-01-15 12:37:00,
2013-01-15 04:42:00,27.3,26.8,30.53,South,180,1.1,0.0,98,0.00,CLR,,0.00,WeatherDisplay:10.37,2013-01-15 12:42:00,
2013-01-15 04:47:00,27.3,26.8,30.53,SW,225,1.1,0.0,98,0.00,CLR,,0.00,WeatherDisplay:10.37,2013-01-15 12:47:00,
2013-01-15 04:52:00,27.3,26.8,30.53,SW,225,1.1,0.0,98,0.00,CLR,,0.00,WeatherDisplay:10.37,2013-01-15 12:52:00,
2013-01-15 04:57:00,27.3,26.8,30.53,South,180,0.0,0.0,98,0.00,CLR,,0.00,WeatherDisplay:10.37,2013-01-15 12:57:00,
2013-01-15 05:02:00,27.1,26.7,30.53,SW,225,1.1,0.0,98,0.00,CLR,,0.00,WeatherDisplay:10.37,2013-01-15 13:02:00,
2013-01-15 05:07:00,27.0,26.5,30.53,SW,225,1.1,0.0,98,0.00,CLR,,0.00,WeatherDisplay:10.37,2013-01-15 13:07:00,
2013-01-15 05:12:00,27.0,26.5,30.53,SW,225,1.1,0.0,98,0.00,CLR,,0.00,WeatherDisplay:10.37,2013-01-15 13:12:00,
2013-01-15 05:17:00,27.0,26.5,30.53,SW,225,0.0,0.0,98,0.00,CLR,,0.00,WeatherDisplay:10.37,2013-01-15 13:17:00,
2013-01-15 05:22:00,27.0,26.5,30.52,SW,225,0.0,0.0,98,0.00,CLR,,0.00,WeatherDisplay:10.37,2013-01-15 13:22:00,
2013-01-15 05:27:00,26.8,26.3,30.52,SW,225,1.1,1.1,98,0.00,CLR,,0.00,WeatherDisplay:10.37,2013-01-15 13:27:00,
2013-01-15 05:32:00,27.0,26.5,30.52,SW,225,1.1,0.0,98,0.00,CLR,,0.00,WeatherDisplay:10.37,2013-01-15 13:32:00,
2013-01-15 05:37:00,27.1,26.7,30.52,NW,315,1.1,0.0,98,0.00,CLR,,0.00,WeatherDisplay:10.37,2013-01-15 13:37:00,
2013-01-15 05:42:00,27.1,26.7,30.53,SW,225,1.1,0.0,98,0.00,CLR,,0.00,WeatherDisplay:10.37,2013-01-15 13:42:00,
2013-01-15 05:47:00,27.1,26.7,30.52,SW,225,1.1,0.0,98,0.00,CLR,,0.00,WeatherDisplay:10.37,2013-01-15 13:47:00,
2013-01-15 05:52:00,27.0,26.5,30.53,West,270,1.1,0.0,98,0.00,CLR,,0.00,WeatherDisplay:10.37,2013-01-15 13:52:00,
2013-01-15 05:57:00,27.1,26.7,30.52,West,270,1.1,0.0,98,0.00,CLR,,0.00,WeatherDisplay:10.37,2013-01-15 13:57:00,
2013-01-15 06:02:00,27.1,26.7,30.53,South,180,1.6,0.0,98,0.00,CLR,,0.00,WeatherDisplay:10.37,2013-01-15 14:02:00,
2013-01-15 06:07:00,27.3,26.8,30.53,West,270,2.3,0.0,98,0.00,CLR,,0.00,WeatherDisplay:10.37,2013-01-15 14:07:00,
2013-01-15 06:12:00,27.3,26.8,30.53,West,270,1.1,0.0,98,0.00,CLR,,0.00,WeatherDisplay:10.37,2013-01-15 14:12:00,
2013-01-15 06:17:00,27.3,26.8,30.53,SW,225,1.1,0.0,98,0.00,CLR,,0.00,WeatherDisplay:10.37,2013-01-15 14:17:00,
2013-01-15 06:22:00,27.3,26.8,30.53,NW,315,2.3,0.0,98,0.00,CLR,,0.00,WeatherDisplay:10.37,2013-01-15 14:22:00,
2013-01-15 06:27:00,27.7,27.2,30.53,NW,315,2.3,2.3,98,0.00,CLR,,0.00,WeatherDisplay:10.37,2013-01-15 14:27:00,
2013-01-15 06:32:00,28.4,27.9,30.53,South,180,2.3,0.0,98,0.00,CLR,,0.00,WeatherDisplay:10.37,2013-01-15 14:32:00,
2013-01-15 06:37:00,28.2,27.7,30.53,SW,225,0.0,0.0,98,0.00,CLR,,0.00,WeatherDisplay:10.37,2013-01-15 14:37:00,
2013-01-15 06:42:00,28.0,27.5,30.53,South,180,1.1,0.0,98,0.00,CLR,,0.00,WeatherDisplay:10.37,2013-01-15 14:42:00,
2013-01-15 06:47:00,27.9,27.4,30.53,SW,225,0.0,0.0,98,0.00,CLR,,0.00,WeatherDisplay:10.37,2013-01-15 14:47:00,
2013-01-15 06:52:00,27.7,27.2,30.53,SW,225,1.1,0.0,98,0.00,CLR,,0.00,WeatherDisplay:10.37,2013-01-15 14:52:00,
2013-01-15 06:57:00,27.7,27.2,30.54,West,270,1.1,1.1,98,0.00,CLR,,0.00,WeatherDisplay:10.37,2013-01-15 14:57:00,
2013-01-15 07:02:00,27.9,27.4,30.54,West,270,1.1,0.0,98,0.00,CLR,,0.00,WeatherDisplay:10.37,2013-01-15 15:02:00,
2013-01-15 07:07:00,27.9,27.4,30.54,West,270,1.1,0.0,98,0.00,CLR,,0.00,WeatherDisplay:10.37,2013-01-15 15:07:00,
2013-01-15 07:12:00,27.7,27.2,30.54,West,270,1.1,0.0,98,0.00,CLR,,0.00,WeatherDisplay:10.37,2013-01-15 15:12:00,
2013-01-15 07:17:00,27.3,26.8,30.54,SW,225,0.0,0.0,98,0.00,CLR,,0.00,WeatherDisplay:10.37,2013-01-15 15:17:00,
2013-01-15 07:22:00,27.1,26.7,30.54,South,180,1.1,0.0,98,0.00,CLR,,0.00,WeatherDisplay:10.37,2013-01-15 15:22:00,
2013-01-15 07:27:00,27.0,26.5,30.55,West,270,1.1,0.0,98,0.00,CLR,,0.00,WeatherDisplay:10.37,2013-01-15 15:27:00,
2013-01-15 07:33:00,27.1,26.7,30.55,West,270,1.1,0.0,98,0.00,CLR,,0.00,WeatherDisplay:10.37,2013-01-15 15:33:00,
2013-01-15 07:38:00,27.1,26.7,30.55,West,270,3.5,3.5,98,0.00,CLR,,0.00,WeatherDisplay:10.37,2013-01-15 15:38:00,
2013-01-15 07:43:00,27.7,27.2,30.55,West,270,2.3,2.3,98,0.00,CLR,,0.00,WeatherDisplay:10.37,2013-01-15 15:43:00,
2013-01-15 07:48:00,28.0,27.5,30.55,SW,225,1.1,0.0,98,0.00,CLR,,0.00,WeatherDisplay:10.37,2013-01-15 15:48:00,
2013-01-15 07:53:00,28.4,27.9,30.55,South,180,1.1,0.0,98,0.00,CLR,,0.00,WeatherDisplay:10.37,2013-01-15 15:53:00,
2013-01-15 07:58:00,28.2,27.7,30.55,West,270,2.3,0.0,98,0.00,CLR,,0.00,WeatherDisplay:10.37,2013-01-15 15:58:00,
2013-01-15 08:03:00,28.2,27.7,30.55,SW,225,1.1,0.0,98,0.00,CLR,,0.00,WeatherDisplay:10.37,2013-01-15 16:03:00,
2013-01-15 08:08:00,28.0,27.5,30.55,SW,225,2.3,2.3,98,0.00,CLR,,0.00,WeatherDisplay:10.37,2013-01-15 16:08:00,
2013-01-15 08:13:00,27.9,27.4,30.56,West,270,1.1,0.0,98,0.00,CLR,,0.00,WeatherDisplay:10.37,2013-01-15 16:13:00,
2013-01-15 08:18:00,28.0,27.5,30.56,NE,45,1.1,0.0,98,0.00,CLR,,0.00,WeatherDisplay:10.37,2013-01-15 16:18:00,
2013-01-15 08:23:00,28.0,27.5,30.56,SW,225,0.0,0.0,98,0.00,CLR,,0.00,WeatherDisplay:10.37,2013-01-15 16:23:00,
2013-01-15 08:28:00,27.9,27.4,30.56,West,270,0.0,0.0,98,0.00,CLR,,0.00,WeatherDisplay:10.37,2013-01-15 16:28:00,
2013-01-15 08:33:00,27.9,27.4,30.56,West,270,1.1,0.0,98,0.00,CLR,,0.00,WeatherDisplay:10.37,2013-01-15 16:33:00,
2013-01-15 08:38:00,28.4,27.9,30.56,West,270,1.1,0.0,98,0.00,CLR,,0.00,WeatherDisplay:10.37,2013-01-15 16:38:00,
2013-01-15 08:43:00,28.8,28.3,30.56,SW,225,1.1,0.0,98,0.00,CLR,,0.00,WeatherDisplay:10.37,2013-01-15 16:43:00,
2013-01-15 08:48:00,29.1,28.6,30.56,SW,225,1.1,0.0,98,0.00,CLR,,0.00,WeatherDisplay:10.37,2013-01-15 16:48:00,
2013-01-15 08:53:00,29.3,28.8,30.56,SW,225,1.1,0.0,98,0.00,CLR,,0.00,WeatherDisplay:10.37,2013-01-15 16:53:00,
2013-01-15 08:58:00,29.7,29.2,30.56,SW,225,0.0,0.0,98,0.00,CLR,,0.00,WeatherDisplay:10.37,2013-01-15 16:58:00,
2013-01-15 09:03:00,30.2,29.7,30.56,West,270,1.1,0.0,98,0.00,CLR,,0.00,WeatherDisplay:10.37,2013-01-15 17:03:00,
2013-01-15 09:08:00,30.6,30.1,30.57,West,270,1.1,1.1,98,0.00,CLR,,0.00,WeatherDisplay:10.37,2013-01-15 17:08:00,
2013-01-15 09:13:00,31.3,30.8,30.57,West,270,1.1,0.0,98,0.00,CLR,,0.00,WeatherDisplay:10.37,2013-01-15 17:13:00,
2013-01-15 09:18:00,31.8,31.3,30.57,NE,45,1.1,0.0,98,0.00,CLR,,0.00,WeatherDisplay:10.37,2013-01-15 17:18:00,
2013-01-15 09:23:00,32.0,31.5,30.56,West,270,1.1,0.0,98,0.00,CLR,,0.00,WeatherDisplay:10.37,2013-01-15 17:23:00,
2013-01-15 09:28:00,32.4,31.9,30.56,West,270,0.0,0.0,98,0.00,CLR,,0.00,WeatherDisplay:10.37,2013-01-15 17:28:00,
2013-01-15 09:33:00,32.7,32.2,30.56,North,0,1.1,0.0,98,0.00,CLR,,0.00,WeatherDisplay:10.37,2013-01-15 17:33:00,
2013-01-15 09:38:00,33.1,32.8,30.56,SE,135,0.0,0.0,99,0.00,CLR,,0.00,WeatherDisplay:10.37,2013-01-15 17:38:00,
2013-01-15 09:43:00,33.4,32.9,30.56,West,270,2.3,0.0,98,0.00,CLR,,0.00,WeatherDisplay:10.37,2013-01-15 17:43:00,
2013-01-15 09:48:00,34.2,33.7,30.56,West,270,1.1,0.0,98,0.00,CLR,,0.00,WeatherDisplay:10.37,2013-01-15 17:48:00,
2013-01-15 09:53:00,35.6,35.3,30.57,NE,45,1.1,0.0,99,0.00,CLR,,0.00,WeatherDisplay:10.37,2013-01-15 17:53:00,
2013-01-15 09:58:00,37.4,37.1,30.56,West,270,1.1,0.0,99,0.00,CLR,,0.00,WeatherDisplay:10.37,2013-01-15 17:58:00,
2013-01-15 10:03:00,42.1,41.8,30.56,North,0,1.1,0.0,99,0.00,CLR,,0.00,WeatherDisplay:10.37,2013-01-15 18:03:00,
2013-01-15 10:08:00,45.3,45.1,30.56,North,0,1.1,0.0,99,0.00,CLR,,0.00,WeatherDisplay:10.37,2013-01-15 18:08:00,
2013-01-15 10:13:00,48.6,48.3,30.56,NE,45,1.1,0.0,99,0.00,CLR,,0.00,WeatherDisplay:10.37,2013-01-15 18:13:00,
2013-01-15 10:18:00,51.1,50.3,30.56,NE,45,1.1,0.0,97,0.00,CLR,,0.00,WeatherDisplay:10.37,2013-01-15 18:18:00,
2013-01-15 10:23:00,52.3,48.6,30.56,NE,45,3.5,3.5,87,0.00,CLR,,0.00,WeatherDisplay:10.37,2013-01-15 18:23:00,
2013-01-15 10:28:00,54.0,48.6,30.56,North,0,1.1,1.1,82,0.00,CLR,,0.00,WeatherDisplay:10.37,2013-01-15 18:28:00,
2013-01-15 10:33:00,55.4,48.7,30.56,NE,45,1.1,1.1,78,0.00,CLR,,0.00,WeatherDisplay:10.37,2013-01-15 18:33:00,
2013-01-15 10:38:00,56.1,46.8,30.56,NE,45,2.3,2.3,71,0.00,CLR,,0.00,WeatherDisplay:10.37,2013-01-15 18:38:00,
2013-01-15 10:43:00,56.7,45.8,30.55,NE,45,3.5,3.5,67,0.00,CLR,,0.00,WeatherDisplay:10.37,2013-01-15 18:43:00,
2013-01-15 10:48:00,56.8,44.0,30.55,NE,45,3.5,3.5,62,0.00,CLR,,0.00,WeatherDisplay:10.37,2013-01-15 18:48:00,
2013-01-15 10:53:00,57.4,44.9,30.55,East,90,3.5,3.5,63,0.00,CLR,,0.00,WeatherDisplay:10.37,2013-01-15 18:53:00,
2013-01-15 10:58:00,57.4,45.3,30.55,NW,315,3.5,3.5,64,0.00,CLR,,0.00,WeatherDisplay:10.37,2013-01-15 18:58:00,
2013-01-15 11:03:00,58.8,43.1,30.55,NE,45,3.5,3.5,56,0.00,CLR,,0.00,WeatherDisplay:10.37,2013-01-15 19:03:00,
2013-01-15 11:08:00,58.3,40.7,30.55,NE,45,5.8,5.8,52,0.00,CLR,,0.00,WeatherDisplay:10.37,2013-01-15 19:08:00,
2013-01-15 11:13:00,59.2,42.5,30.54,NW,315,4.6,4.6,54,0.00,CLR,,0.00,WeatherDisplay:10.37,2013-01-15 19:13:00,
2013-01-15 11:18:00,59.4,36.2,30.54,NE,45,5.8,5.8,42,0.00,CLR,,0.00,WeatherDisplay:10.37,2013-01-15 19:18:00,
2013-01-15 11:23:00,59.0,37.7,30.54,NW,315,5.8,5.8,45,0.00,CLR,,0.00,WeatherDisplay:10.37,2013-01-15 19:23:00,
2013-01-15 11:28:00,59.0,36.5,30.53,NE,45,6.9,6.9,43,0.00,CLR,,0.00,WeatherDisplay:10.37,2013-01-15 19:28:00,
2013-01-15 11:33:00,59.7,36.6,30.53,NE,45,5.8,5.8,42,0.00,CLR,,0.00,WeatherDisplay:10.37,2013-01-15 19:33:00,
2013-01-15 11:38:00,60.4,37.2,30.53,East,90,3.5,3.5,42,0.00,CLR,,0.00,WeatherDisplay:10.37,2013-01-15 19:38:00,
2013-01-15 11:43:00,61.0,33.8,30.53,NE,45,5.8,5.8,36,0.00,CLR,,0.00,WeatherDisplay:10.37,2013-01-15 19:43:00,
2013-01-15 11:48:00,60.6,34.9,30.52,NE,45,5.8,5.8,38,0.00,CLR,,0.00,WeatherDisplay:10.37,2013-01-15 19:48:00,
2013-01-15 11:53:00,60.4,32.6,30.52,NE,45,5.8,5.8,35,0.00,CLR,,0.00,WeatherDisplay:10.37,2013-01-15 19:53:00,
2013-01-15 11:58:00,60.8,33.7,30.52,NE,45,3.5,3.5,36,0.00,CLR,,0.00,WeatherDisplay:10.37,2013-01-15 19:58:00,
2013-01-15 12:03:00,60.4,31.9,30.52,NE,45,5.8,5.8,34,0.00,CLR,,0.00,WeatherDisplay:10.37,2013-01-15 20:03:00,
2013-01-15 12:08:00,60.4,31.9,30.52,North,0,5.8,5.8,34,0.00,CLR,,0.00,WeatherDisplay:10.37,2013-01-15 20:08:00,
2013-01-15 12:13:00,60.6,32.1,30.51,NE,45,3.5,3.5,34,0.00,CLR,,0.00,WeatherDisplay:10.37,2013-01-15 20:13:00,
2013-01-15 12:18:00,60.1,31.6,30.51,East,90,5.8,5.8,34,0.00,CLR,,0.00,WeatherDisplay:10.37,2013-01-15 20:18:00,
2013-01-15 12:23:00,58.5,31.6,30.51,North,0,5.8,5.8,36,0.00,CLR,,0.00,WeatherDisplay:10.37,2013-01-15 20:23:00,
2013-01-15 12:28:00,55.9,31.3,30.51,NE,45,3.5,3.5,39,0.00,CLR,,0.00,WeatherDisplay:10.37,2013-01-15 20:28:00,
2013-01-15 12:33:00,54.1,33.2,30.51,NW,315,5.8,5.8,45,0.00,CLR,,0.00,WeatherDisplay:10.37,2013-01-15 20:33:00,
2013-01-15 12:38:00,53.1,33.9,30.50,North,0,3.5,3.5,48,0.00,CLR,,0.00,WeatherDisplay:10.37,2013-01-15 20:38:00,
2013-01-15 12:43:00,52.3,33.7,30.50,West,270,3.5,3.5,49,0.00,CLR,,0.00,WeatherDisplay:10.37,2013-01-15 20:43:00,
2013-01-15 12:48:00,52.2,34.6,30.50,NE,45,4.6,4.6,51,0.00,CLR,,0.00,WeatherDisplay:10.37,2013-01-15 20:48:00,
2013-01-15 12:53:00,52.0,33.9,30.50,North,0,4.6,4.6,50,0.00,CLR,,0.00,WeatherDisplay:10.37,2013-01-15 20:53:00,
2013-01-15 12:58:00,51.6,34.1,30.50,NW,315,6.9,6.9,51,0.00,CLR,,0.00,WeatherDisplay:10.37,2013-01-15 20:58:00,
2013-01-15 13:03:00,51.8,33.7,30.50,NE,45,8.1,8.1,50,0.00,CLR,,0.00,WeatherDisplay:10.37,2013-01-15 21:03:00,
2013-01-15 13:08:00,52.3,34.7,30.50,NW,315,4.6,4.6,51,0.00,CLR,,0.00,WeatherDisplay:10.37,2013-01-15 21:08:00,
2013-01-15 13:13:00,53.1,34.9,30.50,NW,315,5.8,5.8,50,0.00,CLR,,0.00,WeatherDisplay:10.37,2013-01-15 21:13:00,
2013-01-15 13:18:00,54.7,34.8,30.50,NW,315,5.8,5.8,47,0.00,CLR,,0.00,WeatherDisplay:10.37,2013-01-15 21:18:00,
2013-01-15 13:24:00,56.3,35.8,30.50,North,0,4.6,4.6,46,0.00,CLR,,0.00,WeatherDisplay:10.37,2013-01-15 21:24:00,
2013-01-15 13:29:00,57.6,35.2,30.50,NE,45,3.5,3.5,43,0.00,CLR,,0.00,WeatherDisplay:10.37,2013-01-15 21:29:00,
2013-01-15 13:34:00,58.8,35.8,30.50,SW,225,3.5,3.5,42,0.00,CLR,,0.00,WeatherDisplay:10.37,2013-01-15 21:34:00,
2013-01-15 13:39:00,60.4,33.3,30.50,North,0,8.1,8.1,36,0.00,CLR,,0.00,WeatherDisplay:10.37,2013-01-15 21:39:00,
2013-01-15 13:44:00,60.8,33.0,30.50,NE,45,6.9,6.9,35,0.00,CLR,,0.00,WeatherDisplay:10.37,2013-01-15 21:44:00,
2013-01-15 13:49:00,61.5,32.1,30.50,NE,45,5.8,5.8,33,0.00,CLR,,0.00,WeatherDisplay:10.37,2013-01-15 21:49:00,
2013-01-15 13:55:00,62.6,33.8,30.50,NW,315,6.9,6.9,34,0.00,CLR,,0.00,WeatherDisplay:10.37,2013-01-15 21:55:00,
2013-01-15 14:00:00,64.0,32.8,30.50,NE,45,3.5,3.5,31,0.00,CLR,,0.00,WeatherDisplay:10.37,2013-01-15 22:00:00,
2013-01-15 14:05:00,64.2,32.9,30.50,NW,315,5.8,5.8,31,0.00,CLR,,0.00,WeatherDisplay:10.37,2013-01-15 22:05:00,
2013-01-15 14:10:00,65.7,33.4,30.50,NE,45,4.6,4.6,30,0.00,CLR,,0.00,WeatherDisplay:10.37,2013-01-15 22:10:00,
2013-01-15 14:15:00,66.2,32.1,30.50,NE,45,4.6,4.6,28,0.00,CLR,,0.00,WeatherDisplay:10.37,2013-01-15 22:15:00,
2013-01-15 14:20:00,65.8,31.8,30.50,East,90,5.8,5.8,28,0.00,CLR,,0.00,WeatherDisplay:10.37,2013-01-15 22:20:00,
2013-01-15 14:25:00,64.8,30.0,30.50,NE,45,8.1,8.1,27,0.00,CLR,,0.00,WeatherDisplay:10.37,2013-01-15 22:25:00,
2013-01-15 14:30:00,64.4,31.4,30.50,NW,315,5.8,5.8,29,0.00,CLR,,0.00,WeatherDisplay:10.37,2013-01-15 22:30:00,
2013-01-15 14:35:00,64.6,30.7,30.50,North,0,5.8,5.8,28,0.00,CLR,,0.00,WeatherDisplay:10.37,2013-01-15 22:35:00,
2013-01-15 14:40:00,64.6,30.7,30.50,NE,45,5.8,5.8,28,0.00,CLR,,0.00,WeatherDisplay:10.37,2013-01-15 22:40:00,
2013-01-15 14:45:00,64.8,30.9,30.50,NE,45,4.6,4.6,28,0.00,CLR,,0.00,WeatherDisplay:10.37,2013-01-15 22:45:00,
2013-01-15 14:50:00,64.2,31.3,30.50,North,0,5.8,5.8,29,0.00,CLR,,0.00,WeatherDisplay:10.37,2013-01-15 22:50:00,
2013-01-15 14:55:00,63.9,31.8,30.50,NE,45,5.8,5.8,30,0.00,CLR,,0.00,WeatherDisplay:10.37,2013-01-15 22:55:00,
2013-01-15 15:00:00,63.3,31.3,30.50,NE,45,5.8,5.8,30,0.00,CLR,,0.00,WeatherDisplay:10.37,2013-01-15 23:00:00,
2013-01-15 15:05:00,62.8,30.0,30.50,NW,315,5.8,5.8,29,0.00,CLR,,0.00,WeatherDisplay:10.37,2013-01-15 23:05:00,
2013-01-15 15:10:00,62.4,31.4,30.50,West,270,3.8,3.8,31,0.00,CLR,,0.00,WeatherDisplay:10.37,2013-01-15 23:10:00,
2013-01-15 15:15:00,62.1,31.0,30.50,North,0,5.8,5.8,31,0.00,CLR,,0.00,WeatherDisplay:10.37,2013-01-15 23:15:00,
2013-01-15 15:20:00,60.6,30.6,30.50,NE,45,3.5,3.5,32,0.00,CLR,,0.00,WeatherDisplay:10.37,2013-01-15 23:20:00,
2013-01-15 15:25:00,57.4,29.9,30.50,NNW,338,4.6,4.6,35,0.00,CLR,,0.00,WeatherDisplay:10.37,2013-01-15 23:25:00,
2013-01-15 15:30:00,54.7,31.4,30.50,NE,45,5.8,5.8,41,0.00,CLR,,0.00,WeatherDisplay:10.37,2013-01-15 23:30:00,
2013-01-15 15:35:00,52.9,32.6,30.50,NE,45,3.5,3.5,46,0.00,CLR,,0.00,WeatherDisplay:10.37,2013-01-15 23:35:00,
2013-01-15 15:40:00,52.2,32.5,30.50,East,90,1.1,0.0,47,0.00,CLR,,0.00,WeatherDisplay:10.37,2013-01-15 23:40:00,
2013-01-15 15:45:00,52.0,33.4,30.50,East,90,1.1,0.0,49,0.00,CLR,,0.00,WeatherDisplay:10.37,2013-01-15 23:45:00,
2013-01-15 15:50:00,51.6,33.1,30.50,NE,45,1.1,0.0,49,0.00,CLR,,0.00,WeatherDisplay:10.37,2013-01-15 23:50:00,
2013-01-15 15:55:00,50.9,32.9,30.50,NE,45,3.5,3.5,50,0.00,CLR,,0.00,WeatherDisplay:10.37,2013-01-15 23:55:00,
2013-01-15 16:00:00,50.5,33.6,30.50,North,0,3.5,3.5,52,0.00,CLR,,0.00,WeatherDisplay:10.37,2013-01-16 00:00:00,
2013-01-15 16:05:00,50.2,33.7,30.51,North,0,2.3,0.0,53,0.00,CLR,,0.00,WeatherDisplay:10.37,2013-01-16 00:05:00,
2013-01-15 16:10:00,49.8,34.3,30.51,North,0,3.5,3.5,55,0.00,CLR,,0.00,WeatherDisplay:10.37,2013-01-16 00:10:00,
2013-01-15 16:15:00,49.3,33.8,30.51,NE,45,1.1,0.0,55,0.00,CLR,,0.00,WeatherDisplay:10.37,2013-01-16 00:15:00,
2013-01-15 16:21:00,48.9,33.4,30.50,North,0,2.3,2.3,55,0.00,CLR,,0.00,WeatherDisplay:10.37,2013-01-16 00:21:00,
2013-01-15 16:26:00,48.6,33.6,30.51,NE,45,2.3,0.0,56,0.00,CLR,,0.00,WeatherDisplay:10.37,2013-01-16 00:26:00,
2013-01-15 16:31:00,48.2,33.7,30.50,North,0,1.1,1.1,57,0.00,CLR,,0.00,WeatherDisplay:10.37,2013-01-16 00:31:00,
2013-01-15 16:36:00,47.8,33.8,30.51,West,270,1.1,0.0,58,0.00,CLR,,0.00,WeatherDisplay:10.37,2013-01-16 00:36:00,
2013-01-15 16:41:00,47.5,33.4,30.50,West,270,1.1,0.0,58,0.00,CLR,,0.00,WeatherDisplay:10.37,2013-01-16 00:41:00,
2013-01-15 16:46:00,47.1,33.9,30.51,West,270,1.1,0.0,60,0.00,CLR,,0.00,WeatherDisplay:10.37,2013-01-16 00:46:00,
2013-01-15 16:51:00,46.4,33.3,30.51,South,180,0.0,0.0,60,0.00,CLR,,0.00,WeatherDisplay:10.37,2013-01-16 00:51:00,
2013-01-15 16:56:00,46.0,33.7,30.51,SE,135,2.3,0.0,62,0.00,CLR,,0.00,WeatherDisplay:10.37,2013-01-16 00:56:00,
2013-01-15 17:01:00,45.3,33.9,30.51,East,90,1.1,0.0,64,0.00,CLR,,0.00,WeatherDisplay:10.37,2013-01-16 01:01:00,
2013-01-15 17:06:00,44.8,33.7,30.50,North,0,1.1,0.0,65,0.00,CLR,,0.00,WeatherDisplay:10.37,2013-01-16 01:06:00,
2013-01-15 17:11:00,44.2,33.6,30.50,SE,135,1.1,0.0,66,0.00,CLR,,0.00,WeatherDisplay:10.37,2013-01-16 01:11:00,
2013-01-15 17:16:00,44.1,33.8,30.50,NE,45,1.1,0.0,67,0.00,CLR,,0.00,WeatherDisplay:10.37,2013-01-16 01:16:00,
2013-01-15 17:21:00,43.9,33.6,30.51,NE,45,0.0,0.0,67,0.00,CLR,,0.00,WeatherDisplay:10.37,2013-01-16 01:21:00,
2013-01-15 17:26:00,43.5,34.0,30.51,North,0,1.1,0.0,69,0.00,CLR,,0.00,WeatherDisplay:10.37,2013-01-16 01:26:00,
2013-01-15 17:31:00,43.3,33.8,30.50,NE,45,1.1,1.1,69,0.00,CLR,,0.00,WeatherDisplay:10.37,2013-01-16 01:31:00,
2013-01-15 17:36:00,43.0,33.5,30.50,NE,45,1.1,0.0,69,0.00,CLR,,0.00,WeatherDisplay:10.37,2013-01-16 01:36:00,
2013-01-15 17:41:00,41.9,33.2,30.50,NE,45,1.1,0.0,71,0.00,CLR,,0.00,WeatherDisplay:10.37,2013-01-16 01:41:00,
2013-01-15 17:46:00,40.6,33.3,30.50,SW,225,3.5,0.0,75,0.00,CLR,,0.00,WeatherDisplay:10.37,2013-01-16 01:46:00,
2013-01-15 17:51:00,39.6,32.9,30.50,SW,225,1.1,0.0,77,0.00,CLR,,0.00,WeatherDisplay:10.37,2013-01-16 01:51:00,
2013-01-15 17:56:00,38.7,33.0,30.50,SW,225,2.3,2.3,80,0.00,CLR,,0.00,WeatherDisplay:10.37,2013-01-16 01:56:00,
2013-01-15 18:01:00,38.1,32.8,30.51,SW,225,1.1,0.0,81,0.00,CLR,,0.00,WeatherDisplay:10.37,2013-01-16 02:01:00,
2013-01-15 18:06:00,37.4,32.4,30.51,South,180,1.1,0.0,82,0.00,CLR,,0.00,WeatherDisplay:10.37,2013-01-16 02:06:00,
2013-01-15 18:11:00,36.7,32.0,30.51,SW,225,1.1,1.1,83,0.00,CLR,,0.00,WeatherDisplay:10.37,2013-01-16 02:11:00,
2013-01-15 18:16:00,36.3,32.5,30.51,SW,225,1.1,0.0,86,0.00,CLR,,0.00,WeatherDisplay:10.37,2013-01-16 02:16:00,
2013-01-15 18:21:00,36.0,32.8,30.51,SW,225,2.3,2.3,88,0.00,CLR,,0.00,WeatherDisplay:10.37,2013-01-16 02:21:00,
2013-01-15 18:26:00,35.6,32.7,30.51,SW,225,1.1,0.0,89,0.00,CLR,,0.00,WeatherDisplay:10.37,2013-01-16 02:26:00,
2013-01-15 18:31:00,35.4,32.8,30.52,SW,225,2.3,2.3,90,0.00,CLR,,0.00,WeatherDisplay:10.37,2013-01-16 02:31:00,
2013-01-15 18:36:00,35.1,32.7,30.51,South,180,1.1,0.0,91,0.00,CLR,,0.00,WeatherDisplay:10.37,2013-01-16 02:36:00,
2013-01-15 18:41:00,34.9,32.5,30.52,SW,225,1.1,0.0,91,0.00,CLR,,0.00,WeatherDisplay:10.37,2013-01-16 02:41:00,
2013-01-15 18:46:00,34.3,31.7,30.52,SW,225,0.0,0.0,90,0.00,CLR,,0.00,WeatherDisplay:10.37,2013-01-16 02:46:00,
2013-01-15 18:51:00,34.0,31.6,30.52,SW,225,1.1,0.0,91,0.00,CLR,,0.00,WeatherDisplay:10.37,2013-01-16 02:51:00,
2013-01-15 18:56:00,33.8,31.5,30.52,SW,225,1.1,0.0,91,0.00,CLR,,0.00,WeatherDisplay:10.37,2013-01-16 02:56:00,
2013-01-15 19:01:00,33.6,31.3,30.52,SW,225,2.3,2.3,91,0.00,CLR,,0.00,WeatherDisplay:10.37,2013-01-16 03:01:00,
2013-01-15 19:06:00,33.4,31.4,30.52,South,180,1.6,1.6,92,0.00,CLR,,0.00,WeatherDisplay:10.37,2013-01-16 03:06:00,
2013-01-15 19:11:00,33.3,31.2,30.52,SW,225,1.1,0.0,92,0.00,CLR,,0.00,WeatherDisplay:10.37,2013-01-16 03:11:00,
2013-01-15 19:16:00,33.1,31.3,30.52,SW,225,1.1,0.0,93,0.00,CLR,,0.00,WeatherDisplay:10.37,2013-01-16 03:16:00,
2013-01-15 19:21:00,32.9,31.1,30.52,SW,225,0.0,0.0,93,0.00,CLR,,0.00,WeatherDisplay:10.37,2013-01-16 03:21:00,
2013-01-15 19:26:00,32.9,31.1,30.52,SW,225,1.1,0.0,93,0.00,CLR,,0.00,WeatherDisplay:10.37,2013-01-16 03:26:00,
2013-01-15 19:31:00,32.9,31.1,30.52,SW,225,0.0,0.0,93,0.00,CLR,,0.00,WeatherDisplay:10.37,2013-01-16 03:31:00,
2013-01-15 19:36:00,32.5,30.7,30.52,South,180,0.0,0.0,93,0.00,CLR,,0.00,WeatherDisplay:10.37,2013-01-16 03:36:00,
2013-01-15 19:41:00,32.2,30.4,30.51,SW,225,1.1,0.0,93,0.00,CLR,,0.00,WeatherDisplay:10.37,2013-01-16 03:41:00,
2013-01-15 19:46:00,32.2,30.4,30.51,South,180,1.1,0.0,93,0.00,CLR,,0.00,WeatherDisplay:10.37,2013-01-16 03:46:00,
2013-01-15 19:51:00,32.2,30.4,30.51,South,180,0.0,0.0,93,0.00,CLR,,0.00,WeatherDisplay:10.37,2013-01-16 03:51:00,
2013-01-15 19:56:00,32.0,30.2,30.51,South,180,0.0,0.0,93,0.00,CLR,,0.00,WeatherDisplay:10.37,2013-01-16 03:56:00,
2013-01-15 20:01:00,31.8,30.0,30.51,SW,225,1.1,0.0,93,0.00,CLR,,0.00,WeatherDisplay:10.37,2013-01-16 04:01:00,
2013-01-15 20:06:00,31.6,29.8,30.50,SSW,202,2.2,2.2,93,0.00,CLR,,0.00,WeatherDisplay:10.37,2013-01-16 04:06:00,
2013-01-15 20:11:00,31.6,30.1,30.51,SW,225,3.5,3.5,94,0.00,CLR,,0.00,WeatherDisplay:10.37,2013-01-16 04:11:00,
2013-01-15 20:16:00,31.6,30.4,30.51,SW,225,1.1,0.0,95,0.00,CLR,,0.00,WeatherDisplay:10.37,2013-01-16 04:16:00,
2013-01-15 20:21:00,31.6,30.4,30.51,SW,225,1.1,0.0,95,0.00,CLR,,0.00,WeatherDisplay:10.37,2013-01-16 04:21:00,
2013-01-15 20:26:00,31.8,30.6,30.51,East,90,1.1,0.0,95,0.00,CLR,,0.00,WeatherDisplay:10.37,2013-01-16 04:26:00,
2013-01-15 20:31:00,31.5,30.2,30.51,South,180,0.0,0.0,95,0.00,CLR,,0.00,WeatherDisplay:10.37,2013-01-16 04:31:00,
2013-01-15 20:36:00,31.1,29.8,30.51,SW,225,1.1,0.0,95,0.00,CLR,,0.00,WeatherDisplay:10.37,2013-01-16 04:36:00,
2013-01-15 20:41:00,30.9,29.7,30.51,SW,225,0.0,0.0,95,0.00,CLR,,0.00,WeatherDisplay:10.37,2013-01-16 04:41:00,
2013-01-15 20:46:00,30.9,29.7,30.52,SW,225,2.3,2.3,95,0.00,CLR,,0.00,WeatherDisplay:10.37,2013-01-16 04:46:00,
2013-01-15 20:51:00,30.7,29.5,30.52,SW,225,1.1,0.0,95,0.00,CLR,,0.00,WeatherDisplay:10.37,2013-01-16 04:51:00,
2013-01-15 20:56:00,30.6,29.3,30.51,SW,225,0.0,0.0,95,0.00,CLR,,0.00,WeatherDisplay:10.37,2013-01-16 04:56:00,
2013-01-15 21:00:00,30.6,29.3,30.51,SW,225,0.0,0.0,95,0.00,CLR,,0.00,WeatherDisplay:10.37,2013-01-16 05:00:00,
2013-01-15 21:03:00,30.4,29.1,30.51,SW,225,0.0,0.0,95,0.00,CLR,,0.00,WeatherDisplay:10.37,2013-01-16 05:03:00,
2013-01-15 21:08:00,30.2,28.9,30.51,NW,315,1.1,0.0,95,0.00,CLR,,0.00,WeatherDisplay:10.37,2013-01-16 05:08:00,
2013-01-15 21:13:00,30.2,28.9,30.51,South,180,1.1,0.0,95,0.00,CLR,,0.00,WeatherDisplay:10.37,2013-01-16 05:13:00,
2013-01-15 21:18:00,29.8,28.6,30.51,West,270,1.1,0.0,95,0.00,CLR,,0.00,WeatherDisplay:10.37,2013-01-16 05:18:00,
2013-01-15 21:23:00,30.0,28.8,30.50,West,270,0.0,0.0,95,0.00,CLR,,0.00,WeatherDisplay:10.37,2013-01-16 05:23:00,
2013-01-15 21:28:00,30.0,28.8,30.50,SW,225,1.1,0.0,95,0.00,CLR,,0.00,WeatherDisplay:10.37,2013-01-16 05:28:00,
2013-01-15 21:33:00,30.0,29.0,30.50,SW,225,1.1,0.0,96,0.00,CLR,,0.00,WeatherDisplay:10.37,2013-01-16 05:33:00,
2013-01-15 21:38:00,30.0,29.0,30.50,SW,225,1.1,0.0,96,0.00,CLR,,0.00,WeatherDisplay:10.37,2013-01-16 05:38:00,
2013-01-15 21:43:00,29.8,28.8,30.50,SW,225,1.1,1.1,96,0.00,CLR,,0.00,WeatherDisplay:10.37,2013-01-16 05:43:00,
2013-01-15 21:48:00,29.7,28.7,30.51,SW,225,1.1,0.0,96,0.00,CLR,,0.00,WeatherDisplay:10.37,2013-01-16 05:48:00,
2013-01-15 21:53:00,29.7,28.7,30.51,SW,225,1.1,0.0,96,0.00,CLR,,0.00,WeatherDisplay:10.37,2013-01-16 05:53:00,
2013-01-15 21:58:00,29.7,28.7,30.51,South,180,1.1,0.0,96,0.00,CLR,,0.00,WeatherDisplay:10.37,2013-01-16 05:58:00,
2013-01-15 22:03:00,29.3,28.3,30.51,South,180,2.3,2.3,96,0.00,CLR,,0.00,WeatherDisplay:10.37,2013-01-16 06:03:00,
2013-01-15 22:08:00,29.3,28.3,30.51,NW,315,4.6,0.0,96,0.00,CLR,,0.00,WeatherDisplay:10.37,2013-01-16 06:08:00,
2013-01-15 22:13:00,29.5,28.5,30.50,North,0,1.1,0.0,96,0.00,CLR,,0.00,WeatherDisplay:10.37,2013-01-16 06:13:00,
2013-01-15 22:18:00,29.7,28.7,30.51,SE,135,1.1,0.0,96,0.00,CLR,,0.00,WeatherDisplay:10.37,2013-01-16 06:18:00,
2013-01-15 22:23:00,29.5,28.5,30.51,South,180,1.1,0.0,96,0.00,CLR,,0.00,WeatherDisplay:10.37,2013-01-16 06:23:00,
2013-01-15 22:29:00,29.5,28.5,30.51,South,180,1.1,0.0,96,0.00,CLR,,0.00,WeatherDisplay:10.37,2013-01-16 06:29:00,
2013-01-15 22:34:00,29.5,28.5,30.51,West,270,0.0,0.0,96,0.00,CLR,,0.00,WeatherDisplay:10.37,2013-01-16 06:34:00,
2013-01-15 22:39:00,29.5,28.5,30.51,SW,225,1.1,0.0,96,0.00,CLR,,0.00,WeatherDisplay:10.37,2013-01-16 06:39:00,
2013-01-15 22:44:00,29.5,28.5,30.51,South,180,1.1,1.6,96,0.00,CLR,,0.00,WeatherDisplay:10.37,2013-01-16 06:44:00,
2013-01-15 22:49:00,29.5,28.5,30.51,NE,45,0.0,0.0,96,0.00,CLR,,0.00,WeatherDisplay:10.37,2013-01-16 06:49:00,
2013-01-15 22:54:00,29.5,28.5,30.51,SE,135,2.3,0.0,96,0.00,CLR,,0.00,WeatherDisplay:10.37,2013-01-16 06:54:00,
2013-01-15 22:59:00,29.5,28.5,30.51,SW,225,1.1,0.0,96,0.00,CLR,,0.00,WeatherDisplay:10.37,2013-01-16 06:59:00,
2013-01-15 23:04:00,29.5,28.5,30.51,SW,225,1.1,0.0,96,0.00,CLR,,0.00,WeatherDisplay:10.37,2013-01-16 07:04:00,
2013-01-15 23:09:00,29.5,28.5,30.51,SW,225,1.1,0.0,96,0.00,CLR,,0.00,WeatherDisplay:10.37,2013-01-16 07:09:00,
2013-01-15 23:14:00,29.5,28.5,30.51,SW,225,0.0,0.0,96,0.00,CLR,,0.00,WeatherDisplay:10.37,2013-01-16 07:14:00,
2013-01-15 23:19:00,29.3,28.3,30.52,NE,45,2.3,2.3,96,0.00,CLR,,0.00,WeatherDisplay:10.37,2013-01-16 07:19:00,
2013-01-15 23:24:00,29.1,28.1,30.52,South,180,1.1,0.0,96,0.00,CLR,,0.00,WeatherDisplay:10.37,2013-01-16 07:24:00,
2013-01-15 23:29:00,29.1,28.1,30.52,South,180,1.1,0.0,96,0.00,CLR,,0.00,WeatherDisplay:10.37,2013-01-16 07:29:00,
2013-01-15 23:34:00,28.9,27.9,30.52,South,180,1.1,1.1,96,0.00,CLR,,0.00,WeatherDisplay:10.37,2013-01-16 07:34:00,
2013-01-15 23:39:00,28.9,28.2,30.52,SW,225,1.1,0.0,97,0.00,CLR,,0.00,WeatherDisplay:10.37,2013-01-16 07:39:00,
2013-01-15 23:44:00,28.8,28.0,30.52,SW,225,0.0,0.0,97,0.00,CLR,,0.00,WeatherDisplay:10.37,2013-01-16 07:44:00,
2013-01-15 23:49:00,28.8,28.0,30.52,East,90,1.1,0.0,97,0.00,CLR,,0.00,WeatherDisplay:10.37,2013-01-16 07:49:00,
2013-01-15 23:54:00,28.6,27.8,30.52,SW,225,1.1,0.0,97,0.00,CLR,,0.00,WeatherDisplay:10.37,2013-01-16 07:54:00,
2013-01-15 23:59:00,28.6,27.8,30.51,SW,225,1.1,0.0,97,0.00,CLR,,0.00,WeatherDisplay:10.37,2013-01-16 07:59:00,